aviador You're here:

FBMN Decoded Metar

MAUN in BOTSWANA
Report Time2017-10-20 12:00:00
UTC Time2017-10-20 12:28:23
Flight Rules vfr VFR
Wind020° at 05 kt
W.Decomp.*RWY 08: 3.2 kt HW 3.8 kt LCW
W.Rank020° ranks 13
Current wind is below 020° avg. (6.4)
Visibility9999 m
Phenomena:N/A
Clouds:N/A
Expected CloudBase > 10,000 ft AGL from Temp-Dew spread
CeilingNone
Temp37°C (ISA +28)
Dew Point12°C (22% RH)
Heat Index35.8°C
AAT35.7°C
QNH1012 hPa
Density Alt6,302 ft
Elevation2,953 ft
Report Wrong Elevation
Raw Report
METAR FBMN 201200Z 02005KT CAVOK 37/12 Q1012=

Extra information for FBMN:More info

Metar Taf Metar & Taf Last 4 Metars F.Rules Stats Wind Profile Meteogram Temp Stats Airport Information Weather charts Add Link Nearby VenuesMetar ALERT Operation Metar Decoded Social comments